createdAt,value
2018-02-15T00:00:10.306Z,10.80
2018-02-15T00:02:39.846Z,10.82
2018-02-15T00:05:09.627Z,11.48
2018-02-15T00:07:39.123Z,11.68
2018-02-15T00:10:09.059Z,12.10
2018-02-15T00:12:38.576Z,11.30
2018-02-15T00:15:08.587Z,12.10
2018-02-15T00:17:38.150Z,11.43
2018-02-15T00:20:07.908Z,11.48
2018-02-15T00:22:37.493Z,10.93
2018-02-15T00:25:07.062Z,11.57
2018-02-15T00:27:36.593Z,11.70
2018-02-15T00:30:06.353Z,11.68
2018-02-15T00:32:35.894Z,11.77
2018-02-15T00:35:05.625Z,11.85
2018-02-15T00:37:35.221Z,12.02
2018-02-15T00:40:05.004Z,11.00
2018-02-15T00:42:34.575Z,10.15
2018-02-15T00:45:04.432Z,11.60
2018-02-15T00:47:33.938Z,11.73
2018-02-15T00:50:03.860Z,12.23
2018-02-15T00:52:33.365Z,10.77
2018-02-15T00:55:03.082Z,12.10
2018-02-15T00:57:32.595Z,12.30
2018-02-15T01:00:02.118Z,11.48
2018-02-15T01:02:31.635Z,10.57
2018-02-15T01:05:01.143Z,11.60
2018-02-15T01:07:30.636Z,11.32
2018-02-15T01:10:00.143Z,14.63
2018-02-15T01:12:29.627Z,11.10
2018-02-15T01:14:59.129Z,11.20
2018-02-15T01:17:28.629Z,12.25
2018-02-15T01:19:58.116Z,10.98
2018-02-15T01:22:27.624Z,11.85
2018-02-15T01:24:57.104Z,11.68
2018-02-15T01:27:26.599Z,11.18
2018-02-15T01:29:56.070Z,9.50
2018-02-15T01:32:25.644Z,11.35
2018-02-15T01:34:55.152Z,9.23
2018-02-15T01:37:24.676Z,10.68
2018-02-15T01:39:54.162Z,11.75
2018-02-15T01:42:23.741Z,11.25
2018-02-15T01:44:53.246Z,10.35
2018-02-15T01:47:22.716Z,11.02
2018-02-15T01:49:58.255Z,10.70
2018-02-15T01:52:27.757Z,11.63
2018-02-15T01:54:57.236Z,11.88
2018-02-15T01:57:26.746Z,11.10
2018-02-15T01:59:56.215Z,12.00
2018-02-15T02:02:25.717Z,11.05
2018-02-15T02:04:55.226Z,11.35
2018-02-15T02:07:24.778Z,10.73
2018-02-15T02:09:54.289Z,10.00
2018-02-15T02:12:23.748Z,11.07
2018-02-15T02:14:53.259Z,11.20
2018-02-15T02:17:22.769Z,11.30
2018-02-15T02:19:52.268Z,10.35
2018-02-15T02:22:21.777Z,10.75
2018-02-15T02:24:51.233Z,12.55
2018-02-15T02:27:20.746Z,11.48
2018-02-15T02:29:50.258Z,12.13
2018-02-15T02:32:19.721Z,10.00
2018-02-15T02:34:49.238Z,11.50
2018-02-15T02:37:18.753Z,11.82
2018-02-15T02:39:48.239Z,10.80
2018-02-15T02:42:17.767Z,11.65
2018-02-15T02:44:47.247Z,11.60
2018-02-15T02:47:16.769Z,11.73
2018-02-15T02:49:46.246Z,11.75
2018-02-15T02:52:15.790Z,11.05
2018-02-15T02:54:45.244Z,11.65
2018-02-15T02:57:14.748Z,11.57
2018-02-15T02:59:44.226Z,12.07
2018-02-15T03:02:13.730Z,10.88
2018-02-15T03:04:43.267Z,11.18
2018-02-15T03:07:12.810Z,10.57
2018-02-15T03:09:42.333Z,11.45
2018-02-15T03:12:11.832Z,11.90
2018-02-15T03:14:41.348Z,11.38
2018-02-15T03:17:10.895Z,12.13
2018-02-15T03:19:40.409Z,10.68
2018-02-15T03:22:09.894Z,10.38
2018-02-15T03:24:39.400Z,10.50
2018-02-15T03:27:08.921Z,10.07
2018-02-15T03:29:38.425Z,11.07
2018-02-15T03:32:07.892Z,11.40
2018-02-15T03:34:37.407Z,12.45
2018-02-15T03:37:06.884Z,11.90
2018-02-15T03:39:36.383Z,10.45
2018-02-15T03:42:05.845Z,10.35
2018-02-15T03:44:35.361Z,11.23
2018-02-15T03:47:04.830Z,11.98
2018-02-15T03:49:34.356Z,9.60
2018-02-15T03:52:03.831Z,10.60
2018-02-15T03:54:33.303Z,9.85
2018-02-15T03:57:02.816Z,10.80
2018-02-15T03:59:32.298Z,11.15
2018-02-15T04:02:01.805Z,10.43
2018-02-15T04:04:31.278Z,10.20
2018-02-15T04:07:00.797Z,9.90
2018-02-15T04:09:30.307Z,11.52
2018-02-15T04:11:59.795Z,11.50
2018-02-15T04:14:29.306Z,10.55
2018-02-15T04:16:58.789Z,10.50
2018-02-15T04:19:28.410Z,10.75
2018-02-15T04:21:57.904Z,10.70
2018-02-15T04:24:27.485Z,11.52
2018-02-15T04:26:56.992Z,10.70
2018-02-15T04:29:26.476Z,9.68
2018-02-15T04:31:56.176Z,11.20
2018-02-15T04:34:25.668Z,12.25
2018-02-15T04:36:55.319Z,10.45
2018-02-15T04:39:24.830Z,11.23
2018-02-15T04:41:54.314Z,10.65
2018-02-15T04:44:23.823Z,11.35
2018-02-15T04:46:53.305Z,11.27
2018-02-15T04:49:22.919Z,11.50
2018-02-15T04:51:52.440Z,10.55
2018-02-15T04:54:21.931Z,11.32
2018-02-15T04:56:51.408Z,10.25
2018-02-15T04:59:20.922Z,10.15
2018-02-15T05:01:51.457Z,11.02
2018-02-15T05:04:20.903Z,11.55
2018-02-15T05:06:50.407Z,10.45
2018-02-15T05:09:19.900Z,10.93
2018-02-15T05:11:49.396Z,11.15
2018-02-15T05:14:18.890Z,10.57
2018-02-15T05:16:48.409Z,10.50
2018-02-15T05:19:17.893Z,10.20
2018-02-15T05:21:47.404Z,10.85
2018-02-15T05:24:16.908Z,11.50
2018-02-15T05:26:46.429Z,11.38
2018-02-15T05:29:15.896Z,10.63
2018-02-15T05:31:45.432Z,11.50
2018-02-15T05:34:14.908Z,11.75
2018-02-15T05:36:44.419Z,12.18
2018-02-15T05:39:13.906Z,12.30
2018-02-15T05:41:43.416Z,11.85
2018-02-15T05:44:12.972Z,12.00
2018-02-15T05:46:42.433Z,12.02
2018-02-15T05:49:11.974Z,12.05
2018-02-15T05:51:41.494Z,11.25
2018-02-15T05:54:11.033Z,12.77
2018-02-15T05:56:40.515Z,12.48
2018-02-15T05:59:10.023Z,11.65
2018-02-15T06:01:39.546Z,11.63
2018-02-15T06:04:09.063Z,12.68
2018-02-15T06:06:38.568Z,12.32
2018-02-15T06:09:08.090Z,11.75
2018-02-15T06:11:37.584Z,12.52
2018-02-15T06:14:07.203Z,12.93
2018-02-15T06:16:36.699Z,12.43
2018-02-15T06:19:06.199Z,12.90
2018-02-15T06:21:35.691Z,12.55
2018-02-15T06:24:05.202Z,11.77
2018-02-15T06:26:34.729Z,11.90
2018-02-15T06:29:04.182Z,13.88
2018-02-15T06:31:33.682Z,12.57
2018-02-15T06:34:03.181Z,10.98
2018-02-15T06:36:32.693Z,12.10
2018-02-15T06:39:02.183Z,12.82
2018-02-15T06:41:31.697Z,11.45
2018-02-15T06:44:01.222Z,13.07
2018-02-15T06:46:30.719Z,13.55
2018-02-15T06:49:00.219Z,14.02
2018-02-15T06:51:29.697Z,12.05
2018-02-15T06:53:59.204Z,13.07
2018-02-15T06:56:28.704Z,10.93
2018-02-15T06:58:58.196Z,13.00
2018-02-15T07:01:27.736Z,12.02
2018-02-15T07:03:57.239Z,13.85
2018-02-15T07:06:26.809Z,12.25
2018-02-15T07:08:56.334Z,12.90
2018-02-15T07:11:25.828Z,13.65
2018-02-15T07:13:55.318Z,13.18
2018-02-15T07:16:24.794Z,13.75
2018-02-15T07:18:54.316Z,12.80
2018-02-15T07:21:23.823Z,11.77
2018-02-15T07:23:53.316Z,12.27
2018-02-15T07:26:22.785Z,12.43
2018-02-15T07:28:52.318Z,12.40
2018-02-15T07:31:21.787Z,10.85
2018-02-15T07:33:51.301Z,12.77
2018-02-15T07:36:20.783Z,12.07
2018-02-15T07:38:50.299Z,12.73
2018-02-15T07:41:19.803Z,12.60
2018-02-15T07:43:49.291Z,13.23
2018-02-15T07:46:18.804Z,13.38
2018-02-15T07:48:48.320Z,11.68
2018-02-15T07:51:17.811Z,10.27
2018-02-15T07:53:47.282Z,12.20
2018-02-15T07:56:16.849Z,12.30
2018-02-15T07:58:46.303Z,11.82
2018-02-15T08:01:15.797Z,12.32
2018-02-15T08:03:45.315Z,12.73
2018-02-15T08:06:14.882Z,12.68
2018-02-15T08:08:44.385Z,13.23
2018-02-15T08:11:13.864Z,13.07
2018-02-15T08:13:43.408Z,12.35
2018-02-15T08:16:12.902Z,12.35
2018-02-15T08:18:42.419Z,12.32
2018-02-15T08:21:11.882Z,11.65
2018-02-15T08:23:41.429Z,12.13
2018-02-15T08:26:11.051Z,11.93
2018-02-15T08:28:40.548Z,12.68
2018-02-15T08:31:10.058Z,13.05
2018-02-15T08:33:39.603Z,14.05
2018-02-15T08:36:09.101Z,12.25
2018-02-15T08:38:38.714Z,13.30
2018-02-15T08:41:08.745Z,11.18
2018-02-15T08:43:38.240Z,12.75
2018-02-15T08:46:07.720Z,11.05
2018-02-15T08:48:37.295Z,11.90
2018-02-15T08:51:06.795Z,12.13
2018-02-15T08:53:36.268Z,12.55
2018-02-15T08:56:05.805Z,10.40
2018-02-15T08:58:35.337Z,11.77
2018-02-15T09:01:04.821Z,13.30
2018-02-15T09:03:34.332Z,12.25
2018-02-15T09:06:03.834Z,11.15
2018-02-15T09:08:33.355Z,12.98
2018-02-15T09:11:02.834Z,12.35
2018-02-15T09:13:32.360Z,13.85
2018-02-15T09:16:01.854Z,12.95
2018-02-15T09:18:31.354Z,12.68
2018-02-15T09:21:00.853Z,12.15
2018-02-15T09:23:30.396Z,13.35
2018-02-15T09:25:59.852Z,12.50
2018-02-15T09:28:29.356Z,11.07
2018-02-15T09:30:58.912Z,10.70
2018-02-15T09:33:29.289Z,11.60
2018-02-15T09:35:58.763Z,12.40
2018-02-15T09:38:28.251Z,10.73
2018-02-15T09:40:57.730Z,12.20
2018-02-15T09:43:27.257Z,13.70
2018-02-15T09:45:56.778Z,12.43
2018-02-15T09:48:26.299Z,11.43
2018-02-15T09:50:55.870Z,9.95
2018-02-15T09:53:25.353Z,11.38
2018-02-15T09:55:54.872Z,11.70
2018-02-15T09:58:24.370Z,12.10
2018-02-15T10:00:53.862Z,11.35
2018-02-15T10:03:23.374Z,12.75
2018-02-15T10:05:53.026Z,11.88
2018-02-15T10:08:22.525Z,12.52
2018-02-15T10:10:52.041Z,11.88
2018-02-15T10:13:21.568Z,12.55
2018-02-15T10:15:51.080Z,11.85
2018-02-15T10:18:20.564Z,12.25
2018-02-15T10:20:50.080Z,12.63
2018-02-15T10:23:19.553Z,13.15
2018-02-15T10:25:49.118Z,13.32
2018-02-15T10:28:18.594Z,14.77
2018-02-15T10:30:48.096Z,14.38
2018-02-15T10:33:17.565Z,13.93
2018-02-15T10:35:47.083Z,14.80
2018-02-15T10:38:16.594Z,13.90
2018-02-15T10:40:46.067Z,15.80
2018-02-15T10:43:15.577Z,13.62
2018-02-15T10:45:45.043Z,14.15
2018-02-15T10:48:14.583Z,14.85
2018-02-15T10:50:44.081Z,13.80
2018-02-15T10:53:13.563Z,13.30
2018-02-15T10:55:43.055Z,13.77
2018-02-15T10:58:12.560Z,13.15
2018-02-15T11:01:00.886Z,12.30
2018-02-15T11:03:30.359Z,11.60
2018-02-15T11:06:00.656Z,12.25
2018-02-15T11:08:30.189Z,11.90
2018-02-15T11:10:59.808Z,12.37
2018-02-15T11:13:29.527Z,11.68
2018-02-15T11:15:59.047Z,12.32
2018-02-15T11:18:28.698Z,11.70
2018-02-15T11:20:58.187Z,14.00
2018-02-15T11:23:27.688Z,12.13
2018-02-15T11:25:57.219Z,11.45
2018-02-15T11:28:26.709Z,12.95
2018-02-15T11:30:56.188Z,11.43
2018-02-15T11:33:25.670Z,12.65
2018-02-15T11:35:55.371Z,12.52
2018-02-15T11:38:24.852Z,13.05
2018-02-15T11:40:54.440Z,13.85
2018-02-15T11:43:23.952Z,13.40
2018-02-15T11:45:53.498Z,13.95
2018-02-15T11:48:23.056Z,12.32
2018-02-15T11:50:52.545Z,12.20
2018-02-15T11:53:22.076Z,11.35
2018-02-15T11:55:51.549Z,13.00
2018-02-15T11:58:21.069Z,12.13
2018-02-15T12:00:50.544Z,12.40
2018-02-15T12:03:20.058Z,11.80
2018-02-15T12:05:49.604Z,12.50
2018-02-15T12:08:19.125Z,12.20
2018-02-15T12:10:48.633Z,12.18
2018-02-15T12:13:18.136Z,12.73
2018-02-15T12:15:47.607Z,11.38
2018-02-15T12:18:17.104Z,13.70
2018-02-15T12:20:46.580Z,13.50
2018-02-15T12:23:16.096Z,14.25
2018-02-15T12:25:45.584Z,12.52
2018-02-15T12:28:15.109Z,13.23
2018-02-15T12:30:44.595Z,11.85
2018-02-15T12:33:14.154Z,13.80
2018-02-15T12:35:43.627Z,11.60
2018-02-15T12:38:13.155Z,12.05
2018-02-15T12:40:42.703Z,13.00
2018-02-15T12:43:12.216Z,13.02
2018-02-15T12:45:41.712Z,13.62
2018-02-15T12:48:11.226Z,14.75
2018-02-15T12:50:40.725Z,13.88
2018-02-15T12:53:10.203Z,13.18
2018-02-15T12:55:39.728Z,14.35
2018-02-15T12:58:09.304Z,14.70
2018-02-15T13:00:38.823Z,13.50
2018-02-15T13:03:08.280Z,14.00
2018-02-15T13:05:37.806Z,13.90
2018-02-15T13:08:07.360Z,12.73
2018-02-15T13:10:36.823Z,12.93
2018-02-15T13:13:12.220Z,13.13
2018-02-15T13:15:47.647Z,13.80
2018-02-15T13:18:17.165Z,15.10
2018-02-15T13:20:46.638Z,14.27
2018-02-15T13:23:16.152Z,13.55
2018-02-15T13:25:45.615Z,12.95
2018-02-15T13:28:21.020Z,12.82
2018-02-15T13:30:50.483Z,15.48
2018-02-15T13:33:19.992Z,13.80
2018-02-15T13:35:49.515Z,13.13
2018-02-15T13:38:18.998Z,13.60
2018-02-15T13:40:48.528Z,14.20
2018-02-15T13:43:17.998Z,14.65
2018-02-15T13:45:47.509Z,15.00
2018-02-15T13:48:16.996Z,14.38
2018-02-15T13:50:47.202Z,14.80
2018-02-15T13:53:16.701Z,14.95
2018-02-15T13:55:46.262Z,14.55
2018-02-15T13:58:15.962Z,14.98
2018-02-15T14:00:45.567Z,14.18
2018-02-15T14:03:15.040Z,14.25
2018-02-15T14:05:44.558Z,13.62
2018-02-15T14:08:14.128Z,12.65
2018-02-15T14:10:43.660Z,13.93
2018-02-15T14:13:13.207Z,13.77
2018-02-15T14:15:42.734Z,14.52
2018-02-15T14:18:12.238Z,13.45
2018-02-15T14:20:41.887Z,14.87
2018-02-15T14:23:11.468Z,14.73
2018-02-15T14:25:40.987Z,13.52
2018-02-15T14:28:10.511Z,13.27
2018-02-15T14:30:39.971Z,15.43
2018-02-15T14:33:09.466Z,13.98
2018-02-15T14:35:39.127Z,13.82
2018-02-15T14:38:08.621Z,13.68
2018-02-15T14:40:38.110Z,14.65
2018-02-15T14:43:07.696Z,16.33
2018-02-15T14:45:37.167Z,15.60
2018-02-15T14:48:06.712Z,15.55
2018-02-15T14:50:36.208Z,15.50
2018-02-15T14:53:05.731Z,16.60
2018-02-15T14:55:35.216Z,15.63
2018-02-15T14:58:04.732Z,15.93
2018-02-15T15:00:34.253Z,17.67
2018-02-15T15:03:03.751Z,14.95
2018-02-15T15:05:33.259Z,13.38
2018-02-15T15:08:02.780Z,15.70
2018-02-15T15:10:32.334Z,15.05
2018-02-15T15:13:01.860Z,15.55
2018-02-15T15:15:31.350Z,17.37
2018-02-15T15:18:00.862Z,16.02
2018-02-15T15:20:30.374Z,16.42
2018-02-15T15:22:59.940Z,16.55
2018-02-15T15:25:29.462Z,15.60
2018-02-15T15:27:58.962Z,16.20
2018-02-15T15:30:28.494Z,17.27
2018-02-15T15:32:57.958Z,18.00
2018-02-15T15:35:27.482Z,17.35
2018-02-15T15:37:56.966Z,14.90
2018-02-15T15:40:26.488Z,16.37
2018-02-15T15:42:55.983Z,15.00
2018-02-15T15:45:25.504Z,16.30
2018-02-15T15:47:55.043Z,16.55
2018-02-15T15:50:24.504Z,14.95
2018-02-15T15:52:54.119Z,14.60
2018-02-15T15:55:23.612Z,18.37
2018-02-15T15:57:53.124Z,16.05
2018-02-15T16:00:22.635Z,16.10
2018-02-15T16:02:52.129Z,14.68
2018-02-15T16:05:21.676Z,16.77
2018-02-15T16:07:51.164Z,17.50
2018-02-15T16:10:20.710Z,16.67
2018-02-15T16:12:50.212Z,17.67
2018-02-15T16:15:19.772Z,18.10
2018-02-15T16:17:49.223Z,15.95
2018-02-15T16:20:18.703Z,17.45
2018-02-15T16:22:48.241Z,17.25
2018-02-15T16:25:17.727Z,16.73
2018-02-15T16:27:47.411Z,14.50
2018-02-15T16:30:16.878Z,15.10
2018-02-15T16:32:46.404Z,16.77
2018-02-15T16:35:15.896Z,16.33
2018-02-15T16:37:45.853Z,15.57
2018-02-15T16:40:15.329Z,18.10
2018-02-15T16:42:44.859Z,17.10
2018-02-15T16:45:14.730Z,16.75
2018-02-15T16:47:44.266Z,16.00
2018-02-15T16:50:13.797Z,16.50
2018-02-15T16:52:43.270Z,16.85
2018-02-15T16:55:12.817Z,16.40
2018-02-15T16:57:42.304Z,16.55
2018-02-15T17:00:11.888Z,16.20
2018-02-15T17:02:41.407Z,17.08
2018-02-15T17:05:10.946Z,16.52
2018-02-15T17:07:40.465Z,16.60
2018-02-15T17:10:10.001Z,17.02
2018-02-15T17:12:39.524Z,16.15
2018-02-15T17:15:09.077Z,16.80
2018-02-15T17:17:38.551Z,15.65
2018-02-15T17:20:08.186Z,16.40
2018-02-15T17:22:37.697Z,17.37
2018-02-15T17:25:07.358Z,16.87
2018-02-15T17:27:36.832Z,16.95
2018-02-15T17:30:06.639Z,16.92
2018-02-15T17:32:36.126Z,17.42
2018-02-15T17:35:05.823Z,15.80
2018-02-15T17:37:35.335Z,17.62
2018-02-15T17:40:05.733Z,18.73
2018-02-15T17:42:35.213Z,14.98
2018-02-15T17:45:04.855Z,16.58
2018-02-15T17:47:34.335Z,17.42
2018-02-15T17:50:04.265Z,15.82
2018-02-15T17:52:33.777Z,16.87
2018-02-15T17:55:03.447Z,18.25
2018-02-15T17:57:32.961Z,16.50
2018-02-15T18:00:02.461Z,17.40
2018-02-15T18:02:32.018Z,17.98
2018-02-15T18:05:01.496Z,16.73
2018-02-15T18:07:31.007Z,17.35
2018-02-15T18:10:00.505Z,17.42
2018-02-15T18:12:30.020Z,18.37
2018-02-15T18:14:59.513Z,16.40
2018-02-15T18:17:29.040Z,16.20
2018-02-15T18:19:58.535Z,18.23
2018-02-15T18:22:28.042Z,16.90
2018-02-15T18:24:57.549Z,16.20
2018-02-15T18:27:27.075Z,18.20
2018-02-15T18:29:56.582Z,18.30
2018-02-15T18:32:26.140Z,17.90
2018-02-15T18:34:55.746Z,17.23
2018-02-15T18:37:25.216Z,15.80
2018-02-15T18:39:54.750Z,15.75
2018-02-15T18:42:24.308Z,17.30
2018-02-15T18:44:53.812Z,17.10
2018-02-15T18:47:23.411Z,17.45
2018-02-15T18:49:52.850Z,14.60
2018-02-15T18:52:22.427Z,16.73
2018-02-15T18:54:52.713Z,16.95
2018-02-15T18:57:22.322Z,16.90
2018-02-15T18:59:51.803Z,15.20
2018-02-15T19:02:21.389Z,17.20
2018-02-15T19:04:50.868Z,17.52
2018-02-15T19:07:20.402Z,18.40
2018-02-15T19:09:49.949Z,16.50
2018-02-15T19:12:19.608Z,17.10
2018-02-15T19:14:49.118Z,18.17
2018-02-15T19:17:18.615Z,17.00
2018-02-15T19:19:48.163Z,17.60
2018-02-15T19:22:17.674Z,16.50
2018-02-15T19:24:47.163Z,17.75
2018-02-15T19:27:16.681Z,15.80
2018-02-15T19:29:46.258Z,17.77
2018-02-15T19:32:15.768Z,17.87
2018-02-15T19:34:45.304Z,15.68
2018-02-15T19:37:14.838Z,17.08
2018-02-15T19:39:44.338Z,17.35
2018-02-15T19:42:13.865Z,19.12
2018-02-15T19:44:43.432Z,18.30
2018-02-15T19:47:12.960Z,18.25
2018-02-15T19:49:42.481Z,17.75
2018-02-15T19:52:12.061Z,17.62
2018-02-15T19:54:41.574Z,17.70
2018-02-15T19:57:11.104Z,18.95
2018-02-15T19:59:40.620Z,19.42
2018-02-15T20:02:10.139Z,17.98
2018-02-15T20:04:39.685Z,17.20
2018-02-15T20:07:09.202Z,16.55
2018-02-15T20:09:38.725Z,19.15
2018-02-15T20:12:08.215Z,18.02
2018-02-15T20:14:37.731Z,20.10
2018-02-15T20:17:07.226Z,17.67
2018-02-15T20:19:36.770Z,18.48
2018-02-15T20:22:06.279Z,16.62
2018-02-15T20:24:35.848Z,18.85
2018-02-15T20:27:11.242Z,21.12
2018-02-15T20:29:40.764Z,19.52
2018-02-15T20:32:10.273Z,17.15
2018-02-15T20:34:39.827Z,19.62
2018-02-15T20:37:09.366Z,20.27
2018-02-15T20:39:44.575Z,18.40
2018-02-15T20:42:14.119Z,18.37
2018-02-15T20:44:43.622Z,19.65
2018-02-15T20:47:13.151Z,18.75
2018-02-15T20:49:48.481Z,18.83
2018-02-15T20:52:23.888Z,19.15
2018-02-15T20:54:59.070Z,17.60
2018-02-15T20:57:28.600Z,18.27
2018-02-15T20:59:58.091Z,18.17
2018-02-15T21:02:27.598Z,17.08
2018-02-15T21:04:57.118Z,17.48
2018-02-15T21:07:26.653Z,17.30
2018-02-15T21:09:56.133Z,17.10
2018-02-15T21:12:25.649Z,17.02
2018-02-15T21:14:55.157Z,17.75
2018-02-15T21:17:24.676Z,15.90
2018-02-15T21:19:54.157Z,17.00
2018-02-15T21:22:23.633Z,16.98
2018-02-15T21:24:53.146Z,16.55
2018-02-15T21:27:22.644Z,17.02
2018-02-15T21:29:52.157Z,18.37
2018-02-15T21:32:21.694Z,17.33
2018-02-15T21:34:51.250Z,17.70
2018-02-15T21:37:20.722Z,17.77
2018-02-15T21:39:50.241Z,16.37
2018-02-15T21:42:19.728Z,17.58
2018-02-15T21:44:49.349Z,17.15
2018-02-15T21:47:18.923Z,18.00
2018-02-15T21:49:48.435Z,19.00
2018-02-15T21:52:17.975Z,16.08
2018-02-15T21:54:47.483Z,17.08
2018-02-15T21:57:16.958Z,18.20
2018-02-15T21:59:46.466Z,19.60
2018-02-15T22:02:15.925Z,18.85
2018-02-15T22:04:45.444Z,15.57
2018-02-15T22:07:14.918Z,17.55
2018-02-15T22:09:44.445Z,18.33
2018-02-15T22:12:13.914Z,19.02
2018-02-15T22:14:43.440Z,18.75
2018-02-15T22:17:13.068Z,17.50
2018-02-15T22:19:42.576Z,18.37
2018-02-15T22:22:12.091Z,16.05
2018-02-15T22:24:41.558Z,15.50
2018-02-15T22:27:11.060Z,18.50
2018-02-15T22:29:40.589Z,18.87
2018-02-15T22:32:10.104Z,20.00
2018-02-15T22:34:39.598Z,17.90
2018-02-15T22:37:09.097Z,18.33
2018-02-15T22:39:38.574Z,19.25
2018-02-15T22:42:08.099Z,18.05
2018-02-15T22:44:37.589Z,18.35
2018-02-15T22:47:07.093Z,17.35
2018-02-15T22:49:36.600Z,17.73
2018-02-15T22:52:06.071Z,19.65
2018-02-15T22:54:35.584Z,19.65
2018-02-15T22:57:05.116Z,17.70
2018-02-15T22:59:34.626Z,19.37
2018-02-15T23:02:04.147Z,20.02
2018-02-15T23:04:33.653Z,19.50
2018-02-15T23:07:03.146Z,20.45
2018-02-15T23:09:32.632Z,19.95
2018-02-15T23:12:02.114Z,21.67
2018-02-15T23:14:31.639Z,20.62
2018-02-15T23:17:01.119Z,19.02
2018-02-15T23:19:30.650Z,19.73
2018-02-15T23:22:00.141Z,20.85
2018-02-15T23:24:29.656Z,18.40
2018-02-15T23:26:59.137Z,18.35
2018-02-15T23:29:28.674Z,17.35
2018-02-15T23:31:58.163Z,19.23
2018-02-15T23:34:27.677Z,20.80
2018-02-15T23:36:57.159Z,20.50
2018-02-15T23:39:26.699Z,19.45
2018-02-15T23:41:56.222Z,21.20
2018-02-15T23:44:25.709Z,23.85
2018-02-15T23:46:55.246Z,20.85
2018-02-15T23:49:24.699Z,21.75
2018-02-15T23:51:54.218Z,22.25
2018-02-15T23:54:23.709Z,22.33
2018-02-15T23:56:53.203Z,24.40
2018-02-15T23:59:22.686Z,24.12
